Time;durP1;ratioP1;P1;durP2;ratioP2;P2;SDS_P1;SDS_P2;PMS_P1;PMS_P2;Temp;Humidity;BMP_temperature;BMP_pressure;BME280_temperature;BME280_humidity;BME280_pressure;Samples;Min_cycle;Max_cycle;Signal;HPM_P1;HPM_P2
2022/03/19 00:01:56;;;;;;;1.10;1.00;;;20.50;35.10;;;;;;5093490;28;20477;-85
2022/03/19 00:04:21;;;;;;;1.48;0.80;;;20.50;35.10;;;;;;5093511;28;20056;-86
2022/03/19 00:06:48;;;;;;;1.20;0.82;;;20.50;35.10;;;;;;5093209;28;20052;-86
2022/03/19 00:09:13;;;;;;;1.20;1.10;;;20.50;35.10;;;;;;5093100;28;20081;-85
2022/03/19 00:11:40;;;;;;;1.08;0.88;;;20.50;35.10;;;;;;5074897;28;20052;-85
2022/03/19 00:14:06;;;;;;;1.45;1.20;;;20.50;35.10;;;;;;5075048;28;20134;-85
2022/03/19 00:16:31;;;;;;;1.15;0.90;;;20.50;35.10;;;;;;5091899;28;20447;-85
2022/03/19 00:18:57;;;;;;;0.70;0.70;;;20.40;35.10;;;;;;5074875;28;20044;-86
2022/03/19 00:21:23;;;;;;;1.35;0.98;;;20.50;35.10;;;;;;5074387;28;20060;-86
2022/03/19 00:23:49;;;;;;;1.10;0.80;;;20.50;35.10;;;;;;5074650;28;20048;-86
2022/03/19 00:26:16;;;;;;;1.10;0.90;;;20.50;35.10;;;;;;5058186;28;20047;-86
2022/03/19 00:28:42;;;;;;;1.05;0.85;;;20.50;35.10;;;;;;5074431;28;20052;-85
2022/03/19 00:31:08;;;;;;;1.40;0.95;;;20.50;35.20;;;;;;5093271;28;20392;-85
2022/03/19 00:33:34;;;;;;;1.25;0.93;;;20.40;35.10;;;;;;5073814;28;20048;-86
2022/03/19 00:36:00;;;;;;;1.10;0.90;;;20.40;35.10;;;;;;5092883;28;20047;-85
2022/03/19 00:38:25;;;;;;;1.60;0.90;;;20.50;35.10;;;;;;5092792;28;20063;-85
2022/03/19 00:40:51;;;;;;;1.48;1.17;;;20.50;35.10;;;;;;5075196;28;20091;-85
2022/03/19 00:43:21;;;;;;;1.05;0.80;;;20.50;35.10;;;;;;5092873;28;20048;-85
2022/03/19 00:45:47;;;;;;;1.00;0.90;;;20.50;35.10;;;;;;5074792;28;20180;-86
2022/03/19 00:48:14;;;;;;;1.15;1.00;;;20.50;35.10;;;;;;5092533;28;20040;-85
2022/03/19 00:50:40;;;;;;;1.42;1.27;;;20.50;35.10;;;;;;5092948;28;20052;-85
2022/03/19 00:53:05;;;;;;;1.20;1.10;;;20.50;35.10;;;;;;5092568;28;20066;-86
2022/03/19 00:55:31;;;;;;;1.73;1.23;;;20.40;35.10;;;;;;5092598;28;20048;-86
2022/03/19 00:57:56;;;;;;;1.65;1.17;;;20.50;35.10;;;;;;5092764;28;20052;-86
2022/03/19 01:00:26;;;;;;;1.05;0.95;;;20.50;35.10;;;;;;5074548;28;20083;-85
2022/03/19 01:02:54;;;;;;;1.45;1.00;;;20.50;35.00;;;;;;5074563;28;20052;-85
2022/03/19 01:05:20;;;;;;;1.73;1.30;;;20.50;35.00;;;;;;5072758;28;20118;-86
2022/03/19 01:07:56;;;;;;;1.30;1.05;;;20.50;35.10;;;;;;5092362;28;20047;-85
2022/03/19 01:10:24;;;;;;;1.52;1.00;;;20.50;35.00;;;;;;5092864;28;20055;-85
2022/03/19 01:12:53;;;;;;;1.10;0.90;;;20.50;35.10;;;;;;5057813;28;20052;-86
2022/03/19 01:15:19;;;;;;;1.65;1.00;;;20.50;35.10;;;;;;5092338;28;20078;-85
2022/03/19 01:17:45;;;;;;;1.30;1.00;;;20.50;35.10;;;;;;5074602;28;20515;-85
2022/03/19 01:20:12;;;;;;;1.00;0.80;;;20.50;35.10;;;;;;5092332;28;20048;-86
2022/03/19 01:22:39;;;;;;;1.05;0.93;;;20.50;35.10;;;;;;5092588;28;20104;-86
2022/03/19 01:25:06;;;;;;;1.77;1.02;;;20.50;35.00;;;;;;5092198;28;20436;-86
2022/03/19 01:27:32;;;;;;;0.90;0.90;;;20.50;35.00;;;;;;5092391;28;20048;-85
2022/03/19 01:29:58;;;;;;;1.50;1.17;;;20.50;35.00;;;;;;5072809;28;20052;-85
2022/03/19 01:32:23;;;;;;;1.05;0.95;;;20.50;35.00;;;;;;5092133;28;20052;-85
2022/03/19 01:34:49;;;;;;;1.50;0.95;;;20.50;35.00;;;;;;5074283;28;20135;-85
2022/03/19 01:37:14;;;;;;;0.98;0.88;;;20.50;35.50;;;;;;5092326;28;20048;-85
2022/03/19 01:39:40;;;;;;;1.13;0.95;;;20.50;35.10;;;;;;5092032;28;20075;-86
2022/03/19 01:42:06;;;;;;;1.35;1.00;;;20.50;35.10;;;;;;5092033;28;20050;-85
2022/03/19 01:44:32;;;;;;;1.50;1.10;;;20.50;35.00;;;;;;5093728;28;20122;-85
2022/03/19 01:47:01;;;;;;;1.60;1.00;;;20.50;35.00;;;;;;5077419;28;20415;-85
2022/03/19 01:49:28;;;;;;;1.23;1.10;;;20.50;35.00;;;;;;5095443;28;20077;-85
2022/03/19 01:51:54;;;;;;;1.25;0.90;;;20.50;35.10;;;;;;5095320;28;20135;-85
2022/03/19 01:54:32;;;;;;;0.98;0.60;;;20.50;35.10;;;;;;5077196;28;20060;-86
2022/03/19 01:56:59;;;;;;;1.60;1.02;;;20.50;35.00;;;;;;5077143;28;20067;-85
2022/03/19 01:59:30;;;;;;;1.05;0.95;;;20.50;35.10;;;;;;5077053;28;20052;-84
2022/03/19 02:01:56;;;;;;;1.25;1.05;;;20.40;35.00;;;;;;5077120;28;20052;-86
2022/03/19 02:04:21;;;;;;;1.00;0.90;;;20.50;35.10;;;;;;5095098;28;20052;-86
2022/03/19 02:06:48;;;;;;;1.23;1.00;;;20.40;35.10;;;;;;5094938;28;20145;-86
2022/03/19 02:09:14;;;;;;;1.45;0.98;;;20.40;35.10;;;;;;5095153;28;20048;-85
2022/03/19 02:11:39;;;;;;;1.10;1.00;;;20.50;35.10;;;;;;5094976;28;20056;-86
2022/03/19 02:14:05;;;;;;;1.23;0.90;;;20.40;35.00;;;;;;5076846;28;20056;-86
2022/03/19 02:16:31;;;;;;;1.45;1.23;;;20.40;35.00;;;;;;5095144;28;20063;-85
2022/03/19 02:18:58;;;;;;;1.65;1.10;;;20.40;35.00;;;;;;5095017;28;20040;-86
2022/03/19 02:21:24;;;;;;;1.40;1.02;;;20.50;35.10;;;;;;5095266;28;20056;-86
2022/03/19 02:26:45;;;;;;;1.45;1.00;;;20.50;35.10;;;;;;5095240;28;20071;-86
2022/03/19 02:29:11;;;;;;;1.90;1.05;;;20.50;35.00;;;;;;5076266;28;20052;-86
2022/03/19 02:31:41;;;;;;;1.30;1.05;;;20.50;35.10;;;;;;5094763;28;20052;-86
2022/03/19 02:34:10;;;;;;;1.65;1.10;;;20.50;35.00;;;;;;5076597;28;20120;-85
2022/03/19 02:36:40;;;;;;;0.73;0.70;;;20.50;35.00;;;;;;5094710;28;20052;-85
2022/03/19 02:39:12;;;;;;;1.25;1.13;;;20.50;35.00;;;;;;5094484;28;20062;-86
2022/03/19 02:41:46;;;;;;;0.93;0.82;;;20.50;35.00;;;;;;5094573;28;20052;-86
2022/03/19 02:44:12;;;;;;;1.63;1.00;;;20.50;35.10;;;;;;5094971;28;20056;-85
2022/03/19 02:46:41;;;;;;;1.30;1.00;;;20.40;35.00;;;;;;5076917;28;20147;-86
2022/03/19 02:49:07;;;;;;;1.23;1.00;;;20.50;35.10;;;;;;5094360;28;20558;-85
2022/03/19 02:51:37;;;;;;;0.90;0.90;;;20.50;35.00;;;;;;5094509;28;20071;-86
2022/03/19 02:54:08;;;;;;;1.92;1.20;;;20.40;35.00;;;;;;5094175;28;20084;-86
2022/03/19 02:56:36;;;;;;;0.88;0.80;;;20.40;35.00;;;;;;5075449;28;20074;-86
2022/03/19 02:59:06;;;;;;;2.35;1.08;;;20.50;35.00;;;;;;5076036;28;20054;-86
2022/03/19 03:01:32;;;;;;;1.20;1.10;;;20.50;35.00;;;;;;5076198;28;20101;-85
2022/03/19 03:03:57;;;;;;;1.17;1.08;;;20.50;35.00;;;;;;5076044;28;20051;-85
2022/03/19 03:06:23;;;;;;;2.30;1.25;;;20.50;35.00;;;;;;5059558;28;20050;-85
2022/03/19 03:08:48;;;;;;;1.30;0.80;;;20.50;35.00;;;;;;5093974;28;20048;-85
2022/03/19 03:11:14;;;;;;;0.80;0.80;;;20.50;35.00;;;;;;5075596;28;20101;-86
2022/03/19 03:13:39;;;;;;;0.75;0.75;;;20.50;35.00;;;;;;5094048;28;20104;-86
2022/03/19 03:16:05;;;;;;;1.95;1.05;;;20.50;35.00;;;;;;5094414;28;20130;-86
2022/03/19 03:18:31;;;;;;;1.00;0.80;;;20.50;35.00;;;;;;5094144;28;20082;-85
2022/03/19 03:20:59;;;;;;;1.10;1.00;;;20.50;35.00;;;;;;5094053;28;20047;-85
2022/03/19 03:23:26;;;;;;;0.90;0.90;;;20.50;35.00;;;;;;5093911;28;20052;-85
2022/03/19 03:25:52;;;;;;;0.90;0.70;;;20.50;35.00;;;;;;5075842;28;20121;-85
2022/03/19 03:28:18;;;;;;;1.10;1.00;;;20.50;35.00;;;;;;5093566;28;20048;-86
2022/03/19 03:30:43;;;;;;;1.23;0.98;;;20.50;35.00;;;;;;5093786;28;20408;-86
2022/03/19 03:33:09;;;;;;;0.90;0.70;;;20.50;35.00;;;;;;5094480;28;20147;-86
2022/03/19 03:35:34;;;;;;;1.10;0.80;;;20.50;35.00;;;;;;5075676;28;20051;-85
2022/03/19 03:38:00;;;;;;;2.05;0.90;;;20.50;35.00;;;;;;5093687;28;20472;-86
2022/03/19 03:40:25;;;;;;;1.05;0.80;;;20.50;35.00;;;;;;5074306;28;20044;-85
2022/03/19 03:42:51;;;;;;;1.15;0.93;;;20.50;35.00;;;;;;5075448;28;20075;-85
2022/03/19 03:45:17;;;;;;;0.80;0.80;;;20.50;35.00;;;;;;5075472;28;20056;-86
2022/03/19 03:47:42;;;;;;;1.10;0.90;;;20.50;35.00;;;;;;5093294;28;20058;-85
2022/03/19 03:50:09;;;;;;;1.33;1.00;;;20.50;34.90;;;;;;5093658;28;20139;-86
2022/03/19 03:52:35;;;;;;;1.23;1.00;;;20.50;35.00;;;;;;5075542;28;20102;-85
2022/03/19 03:55:01;;;;;;;1.02;0.90;;;20.50;35.00;;;;;;5074342;28;20061;-86
2022/03/19 03:57:26;;;;;;;1.67;1.35;;;20.50;34.90;;;;;;5093727;28;20055;-86
2022/03/19 03:59:52;;;;;;;0.85;0.85;;;20.50;34.90;;;;;;5093605;28;20062;-86
2022/03/19 04:02:18;;;;;;;1.05;0.95;;;20.50;34.90;;;;;;5075294;28;20056;-86
2022/03/19 04:04:43;;;;;;;0.70;0.70;;;20.50;34.90;;;;;;5075167;28;20058;-86
2022/03/19 04:07:09;;;;;;;0.82;0.77;;;20.50;34.90;;;;;;5074987;28;20048;-85
2022/03/19 04:09:35;;;;;;;1.10;1.00;;;20.60;34.90;;;;;;5075497;28;20052;-86
2022/03/19 04:12:03;;;;;;;1.08;0.93;;;20.60;34.90;;;;;;5093527;28;20052;-85
2022/03/19 04:14:29;;;;;;;0.80;0.80;;;20.60;34.90;;;;;;5073564;28;20508;-85
2022/03/19 04:16:55;;;;;;;1.02;0.93;;;20.60;34.80;;;;;;5093142;28;20051;-86
2022/03/19 04:19:21;;;;;;;1.10;1.00;;;20.60;34.90;;;;;;5093004;28;20060;-86
2022/03/19 04:21:46;;;;;;;0.80;0.77;;;20.60;34.90;;;;;;5093042;28;20054;-85
2022/03/19 04:24:12;;;;;;;1.73;1.20;;;20.60;34.80;;;;;;5093404;28;20044;-86
2022/03/19 04:26:37;;;;;;;0.80;0.80;;;20.60;34.80;;;;;;5093025;28;20052;-86
2022/03/19 04:29:03;;;;;;;1.00;0.95;;;20.60;34.80;;;;;;5093109;28;20058;-86
2022/03/19 04:31:29;;;;;;;1.50;0.85;;;20.60;34.80;;;;;;5074854;28;20052;-86
2022/03/19 04:33:54;;;;;;;0.90;0.80;;;20.60;34.80;;;;;;5092955;28;20055;-86
2022/03/19 04:36:35;;;;;;;1.00;0.90;;;20.60;34.80;;;;;;5092872;28;20129;-85
2022/03/19 04:39:02;;;;;;;;;;;20.60;34.70;;;;;;5093416;28;20044;-86
2022/03/19 04:41:29;;;;;;;1.17;0.90;;;20.60;34.70;;;;;;5092787;28;19969;-86
2022/03/19 04:43:55;;;;;;;1.27;0.98;;;20.70;34.70;;;;;;5074272;28;20043;-85
2022/03/19 04:46:20;;;;;;;0.80;0.73;;;20.70;34.70;;;;;;5092662;28;20135;-86
2022/03/19 04:48:46;;;;;;;1.40;1.00;;;20.70;34.70;;;;;;5092646;28;20658;-86
2022/03/19 04:51:17;;;;;;;0.98;0.88;;;20.70;34.60;;;;;;5092705;28;20109;-85
2022/03/19 04:53:50;;;;;;;0.88;0.85;;;20.70;34.60;;;;;;5093005;28;20048;-85
2022/03/19 04:56:22;;;;;;;0.85;0.82;;;20.70;34.60;;;;;;5092742;28;20048;-86
2022/03/19 04:58:49;;;;;;;0.75;0.73;;;20.80;34.60;;;;;;5092668;28;20040;-86
2022/03/19 05:01:16;;;;;;;1.98;1.30;;;20.80;34.60;;;;;;5074716;28;20056;-86
2022/03/19 05:03:42;;;;;;;0.93;0.90;;;20.80;34.60;;;;;;5092434;28;20067;-86
2022/03/19 05:06:07;;;;;;;1.05;0.80;;;20.80;34.60;;;;;;5092514;28;20479;-86
2022/03/19 05:08:33;;;;;;;1.00;0.80;;;20.80;34.60;;;;;;5074236;28;20389;-86
2022/03/19 05:11:13;;;;;;;0.88;0.60;;;20.80;34.50;;;;;;5074640;28;20407;-85
2022/03/19 05:13:48;;;;;;;1.10;0.93;;;20.90;34.50;;;;;;5074634;28;20048;-86
2022/03/19 05:16:15;;;;;;;1.20;0.90;;;20.80;34.50;;;;;;5092330;28;20076;-86
2022/03/19 05:18:41;;;;;;;1.52;1.00;;;20.90;34.50;;;;;;5074660;28;20081;-86
2022/03/19 05:21:07;;;;;;;1.00;0.90;;;20.90;34.60;;;;;;5077818;28;20082;-86
2022/03/19 05:23:34;;;;;;;0.93;0.77;;;20.90;34.50;;;;;;5078321;28;20095;-86
2022/03/19 05:26:00;;;;;;;1.17;1.00;;;20.90;34.50;;;;;;5096109;28;20052;-86
2022/03/19 05:28:26;;;;;;;1.13;0.80;;;20.90;34.50;;;;;;5095919;28;20056;-86
2022/03/19 05:30:53;;;;;;;1.67;0.90;;;20.90;34.50;;;;;;5077702;28;20052;-86
2022/03/19 05:33:19;;;;;;;0.60;0.60;;;20.90;34.50;;;;;;5077526;28;20048;-85
2022/03/19 05:35:45;;;;;;;1.40;1.00;;;20.90;34.50;;;;;;5095642;28;20051;-85
2022/03/19 05:38:12;;;;;;;1.08;0.80;;;20.90;34.50;;;;;;5061327;28;20048;-86
2022/03/19 05:40:37;;;;;;;0.82;0.70;;;20.90;34.50;;;;;;5095678;28;20138;-86
2022/03/19 05:43:03;;;;;;;1.45;1.00;;;20.90;34.40;;;;;;5095854;28;20136;-86
2022/03/19 05:45:29;;;;;;;0.65;0.65;;;21.00;34.40;;;;;;5095607;28;20106;-86
2022/03/19 05:47:54;;;;;;;0.88;0.80;;;21.00;34.30;;;;;;5077136;28;20397;-86
2022/03/19 05:50:20;;;;;;;0.75;0.75;;;21.10;34.20;;;;;;5095477;28;20102;-86
2022/03/19 05:52:46;;;;;;;1.38;0.90;;;21.10;34.10;;;;;;5077184;28;20135;-85
2022/03/19 05:55:13;;;;;;;0.75;0.70;;;21.20;34.10;;;;;;5095178;28;20060;-86
2022/03/19 05:57:40;;;;;;;1.00;0.90;;;21.30;34.00;;;;;;5095219;28;20491;-86
2022/03/19 06:00:11;;;;;;;0.63;0.63;;;21.30;33.80;;;;;;5074895;28;20091;-85
2022/03/19 06:02:41;;;;;;;1.10;1.00;;;21.40;33.70;;;;;;5095417;28;20480;-85
2022/03/19 06:05:08;;;;;;;0.95;0.85;;;21.50;33.60;;;;;;5095235;28;20491;-86
2022/03/19 06:07:33;;;;;;;1.27;0.90;;;21.60;33.60;;;;;;5094911;28;20087;-85
2022/03/19 06:09:59;;;;;;;1.95;1.00;;;21.60;33.40;;;;;;5095262;28;20181;-86
2022/03/19 06:12:25;;;;;;;0.85;0.75;;;21.70;33.40;;;;;;5095153;28;20134;-85
2022/03/19 06:14:53;;;;;;;1.00;0.90;;;21.80;33.30;;;;;;5095067;28;20055;-85
2022/03/19 06:17:20;;;;;;;1.10;0.80;;;21.80;33.30;;;;;;5094964;28;20059;-86
2022/03/19 06:19:46;;;;;;;1.05;0.82;;;21.80;33.30;;;;;;5076678;28;20143;-86
2022/03/19 06:22:11;;;;;;;0.90;0.80;;;21.80;33.20;;;;;;5076977;28;20098;-85
2022/03/19 06:24:37;;;;;;;0.70;0.70;;;21.90;33.20;;;;;;5094923;28;20062;-85
2022/03/19 06:27:03;;;;;;;1.20;0.90;;;21.90;33.10;;;;;;5075817;28;20049;-86
2022/03/19 06:29:29;;;;;;;0.95;0.80;;;21.90;33.10;;;;;;5094597;28;20526;-85
2022/03/19 06:31:55;;;;;;;1.30;1.00;;;22.00;33.00;;;;;;5093728;28;20488;-86
2022/03/19 06:34:20;;;;;;;1.05;0.90;;;22.00;33.00;;;;;;5095102;28;20063;-85
2022/03/19 06:39:30;;;;;;;0.82;0.82;;;22.10;32.90;;;;;;5094795;28;20059;-85
2022/03/19 06:41:56;;;;;;;0.70;0.70;;;22.10;32.80;;;;;;5094984;28;20487;-85
2022/03/19 06:44:22;;;;;;;1.67;0.90;;;22.20;32.80;;;;;;5094923;28;20067;-85
2022/03/19 06:46:48;;;;;;;1.15;0.90;;;22.20;32.80;;;;;;5094597;28;20052;-85
2022/03/19 06:49:13;;;;;;;0.82;0.75;;;22.20;32.70;;;;;;5094625;28;20095;-85
2022/03/19 06:51:40;;;;;;;1.67;1.20;;;22.20;32.60;;;;;;5076578;28;20058;-86
2022/03/19 06:54:05;;;;;;;0.75;0.70;;;22.30;32.70;;;;;;5094787;28;20048;-85
2022/03/19 06:56:31;;;;;;;1.42;0.80;;;22.30;32.60;;;;;;5094231;28;20051;-85
2022/03/19 06:58:57;;;;;;;1.33;1.10;;;22.30;32.60;;;;;;5094233;28;20075;-85
2022/03/19 07:01:22;;;;;;;0.82;0.80;;;22.30;32.50;;;;;;5094322;28;20491;-84
2022/03/19 07:03:48;;;;;;;0.88;0.82;;;22.30;32.60;;;;;;5076220;28;20087;-86
2022/03/19 07:06:18;;;;;;;1.52;1.00;;;22.40;32.60;;;;;;5094243;28;20040;-85
2022/03/19 07:08:44;;;;;;;0.88;0.80;;;22.30;32.50;;;;;;5094104;28;20048;-86
2022/03/19 07:11:10;;;;;;;2.03;0.82;;;22.40;32.50;;;;;;5094183;28;20054;-85
2022/03/19 07:13:36;;;;;;;1.08;0.90;;;22.40;32.50;;;;;;5094480;28;20134;-85
2022/03/19 07:16:02;;;;;;;0.70;0.70;;;22.40;32.40;;;;;;5094097;28;20143;-86
2022/03/19 07:18:28;;;;;;;1.50;0.88;;;22.40;32.40;;;;;;5093993;28;20044;-85
2022/03/19 07:20:54;;;;;;;1.00;0.90;;;22.40;32.40;;;;;;5094077;28;20147;-85
2022/03/19 07:23:20;;;;;;;0.80;0.77;;;22.40;32.40;;;;;;5094091;28;20093;-85
2022/03/19 07:25:46;;;;;;;1.30;1.10;;;22.50;32.40;;;;;;5075841;28;20483;-85
2022/03/19 07:28:19;;;;;;;1.05;0.95;;;22.50;32.30;;;;;;5074866;28;20094;-85
2022/03/19 07:30:47;;;;;;;1.10;0.80;;;22.50;32.30;;;;;;5076257;28;20048;-85
2022/03/19 07:33:13;;;;;;;1.52;0.98;;;22.60;32.20;;;;;;5093744;28;20052;-85
2022/03/19 07:35:40;;;;;;;0.80;0.80;;;22.60;32.10;;;;;;5075598;28;20051;-85
2022/03/19 07:38:06;;;;;;;1.42;1.25;;;22.60;32.00;;;;;;5093514;28;20499;-85
2022/03/19 07:43:19;;;;;;;0.80;0.80;;;22.60;32.10;;;;;;5093471;28;20052;-85
2022/03/19 07:45:45;;;;;;;0.98;0.80;;;22.60;32.10;;;;;;5075527;28;20051;-85
2022/03/19 07:48:11;;;;;;;1.27;1.00;;;22.60;32.10;;;;;;5092357;28;20138;-85
2022/03/19 07:50:38;;;;;;;0.90;0.80;;;22.50;32.10;;;;;;5093973;28;20126;-85
2022/03/19 07:53:04;;;;;;;1.38;0.95;;;22.50;32.10;;;;;;5093521;28;20056;-85
2022/03/19 07:55:30;;;;;;;1.30;0.88;;;22.50;32.20;;;;;;5075232;28;20052;-85
2022/03/19 07:57:56;;;;;;;1.42;0.98;;;22.50;32.30;;;;;;5093383;28;20137;-85
2022/03/19 08:00:22;;;;;;;1.95;1.02;;;22.50;32.30;;;;;;5093509;28;20461;-86
2022/03/19 08:02:47;;;;;;;1.48;1.10;;;22.40;32.30;;;;;;5075576;28;20063;-86
2022/03/19 08:05:13;;;;;;;1.88;1.27;;;22.40;32.40;;;;;;5093439;28;20048;-85
2022/03/19 08:07:39;;;;;;;0.88;0.80;;;22.40;32.40;;;;;;5074958;28;20154;-86
2022/03/19 08:10:07;;;;;;;0.88;0.82;;;22.40;32.50;;;;;;5074501;28;20060;-85
2022/03/19 08:12:33;;;;;;;1.38;1.10;;;22.30;32.40;;;;;;5074173;28;20087;-85
2022/03/19 08:14:59;;;;;;;1.45;0.90;;;22.20;32.50;;;;;;5093266;28;20056;-85
2022/03/19 08:17:26;;;;;;;3.08;1.13;;;22.20;32.50;;;;;;5075075;28;20080;-86
2022/03/19 08:19:52;;;;;;;1.25;0.70;;;22.20;32.60;;;;;;5074928;28;20052;-85
2022/03/19 08:22:18;;;;;;;0.70;0.70;;;22.10;32.60;;;;;;5075139;28;20048;-85
2022/03/19 08:24:45;;;;;;;1.95;0.95;;;22.10;32.70;;;;;;5074938;28;20105;-86
2022/03/19 08:27:10;;;;;;;1.92;1.20;;;22.10;32.70;;;;;;5074872;28;20209;-85
2022/03/19 08:29:36;;;;;;;1.85;1.13;;;22.10;32.80;;;;;;5075162;28;20583;-85
2022/03/19 08:32:02;;;;;;;1.02;0.90;;;22.00;32.80;;;;;;5092935;28;20496;-86
2022/03/19 08:34:27;;;;;;;0.75;0.70;;;22.00;32.90;;;;;;5092867;28;20048;-86
2022/03/19 08:36:53;;;;;;;1.05;0.82;;;21.90;32.90;;;;;;5092915;28;20059;-85
2022/03/19 08:42:03;;;;;;;1.15;0.90;;;21.90;33.00;;;;;;5075126;28;20040;-85
2022/03/19 08:44:29;;;;;;;1.10;0.70;;;21.80;33.00;;;;;;5092843;28;20048;-86
2022/03/19 08:46:55;;;;;;;0.73;0.70;;;21.80;33.00;;;;;;5093036;28;20059;-86
2022/03/19 08:49:21;;;;;;;1.40;1.02;;;21.80;33.10;;;;;;5092644;28;20488;-86
2022/03/19 08:51:46;;;;;;;0.90;0.90;;;21.80;33.20;;;;;;5072738;28;20083;-86
2022/03/19 08:54:17;;;;;;;1.85;0.80;;;21.70;33.20;;;;;;5091789;28;20176;-85
2022/03/19 08:56:46;;;;;;;1.23;0.77;;;21.70;33.30;;;;;;5074665;28;20048;-85
2022/03/19 08:59:12;;;;;;;1.55;0.90;;;21.60;33.30;;;;;;5074450;28;20196;-86
2022/03/19 09:01:40;;;;;;;1.27;1.08;;;21.60;33.40;;;;;;5092556;28;20063;-85
2022/03/19 09:04:07;;;;;;;2.30;1.20;;;21.60;33.40;;;;;;5074364;28;20056;-86
2022/03/19 09:06:33;;;;;;;1.73;1.17;;;21.50;33.40;;;;;;5092507;28;20135;-85
2022/03/19 09:09:03;;;;;;;3.22;1.05;;;21.50;33.90;;;;;;5092339;28;20484;-86
2022/03/19 09:11:30;;;;;;;0.90;0.80;;;21.50;33.30;;;;;;5092408;28;20044;-85
2022/03/19 09:13:56;;;;;;;1.42;1.00;;;21.50;33.40;;;;;;5092386;28;20138;-85
2022/03/19 09:16:24;;;;;;;1.10;0.90;;;21.50;33.30;;;;;;5092316;28;20091;-85
2022/03/19 09:18:50;;;;;;;1.27;0.98;;;21.50;33.40;;;;;;5092281;28;20040;-85
2022/03/19 09:21:17;;;;;;;1.92;1.10;;;21.50;33.40;;;;;;5074067;28;20059;-85
2022/03/19 09:23:45;;;;;;;1.33;0.95;;;21.50;33.40;;;;;;5092600;28;20052;-85
2022/03/19 09:26:11;;;;;;;1.25;0.88;;;21.50;33.40;;;;;;5074643;28;20051;-85
2022/03/19 09:28:37;;;;;;;1.50;0.90;;;21.50;33.40;;;;;;5092130;28;20472;-85
2022/03/19 09:31:02;;;;;;;0.75;0.75;;;21.50;33.40;;;;;;5092343;28;20066;-86
2022/03/19 09:33:28;;;;;;;1.05;0.95;;;21.50;33.40;;;;;;5092507;28;20052;-85
2022/03/19 09:35:54;;;;;;;2.25;1.20;;;21.50;33.40;;;;;;5092279;28;20055;-85
2022/03/19 09:38:20;;;;;;;1.92;1.10;;;21.50;33.40;;;;;;5091979;28;20048;-86
2022/03/19 09:40:45;;;;;;;1.48;1.20;;;21.50;33.40;;;;;;5091990;28;20060;-86
2022/03/19 09:43:11;;;;;;;0.90;0.90;;;21.40;33.30;;;;;;5092364;28;20048;-85
2022/03/19 09:45:38;;;;;;;1.10;0.85;;;21.40;33.40;;;;;;5092385;28;20044;-85
2022/03/19 09:48:04;;;;;;;1.05;0.80;;;21.40;33.40;;;;;;5056732;28;20073;-85
2022/03/19 09:50:30;;;;;;;1.13;0.70;;;21.40;33.30;;;;;;5091859;28;20128;-86
2022/03/19 09:52:57;;;;;;;1.33;1.00;;;21.40;33.30;;;;;;5092042;28;20052;-85
2022/03/19 09:55:26;;;;;;;1.95;0.95;;;21.40;33.40;;;;;;5091769;28;20182;-85
2022/03/19 09:57:57;;;;;;;1.23;0.88;;;21.40;33.40;;;;;;5071659;28;20158;-85
2022/03/19 10:00:26;;;;;;;1.00;0.90;;;21.40;33.40;;;;;;5072111;28;20526;-85
2022/03/19 10:03:00;;;;;;;1.13;0.90;;;21.40;33.40;;;;;;5091909;28;20060;-85
2022/03/19 10:11:00;;;;;;;1.25;0.95;;;21.40;33.40;;;;;;5095119;28;20044;-86
2022/03/19 10:13:26;;;;;;;2.13;1.10;;;21.40;33.30;;;;;;5095097;28;20058;-85
2022/03/19 10:15:52;;;;;;;1.88;0.95;;;21.40;33.30;;;;;;5095235;28;20056;-86
2022/03/19 10:18:25;;;;;;;1.83;0.90;;;21.40;33.40;;;;;;5095050;28;20063;-86
2022/03/19 10:20:51;;;;;;;1.50;0.80;;;21.40;33.40;;;;;;5094750;28;20122;-85
2022/03/19 10:23:28;;;;;;;1.63;0.95;;;21.40;33.30;;;;;;5075727;28;20098;-85
2022/03/19 10:25:54;;;;;;;0.95;0.85;;;21.40;33.30;;;;;;5094862;28;20052;-85
2022/03/19 10:28:28;;;;;;;3.42;1.10;;;21.40;33.30;;;;;;5094813;28;20109;-85
2022/03/19 10:30:54;;;;;;;1.80;1.08;;;21.40;33.30;;;;;;5094802;28;20540;-85
2022/03/19 10:33:25;;;;;;;1.40;1.00;;;21.40;33.30;;;;;;5094687;28;20052;-85
2022/03/19 10:35:50;;;;;;;1.02;0.80;;;21.40;33.40;;;;;;5076885;28;20524;-85
2022/03/19 10:38:25;;;;;;;1.67;0.98;;;21.30;33.30;;;;;;5095040;28;20058;-85
2022/03/19 10:40:52;;;;;;;0.90;0.82;;;21.30;33.30;;;;;;5094784;28;20060;-85
2022/03/19 10:43:21;;;;;;;1.38;1.17;;;21.40;33.30;;;;;;5094950;28;20491;-85
2022/03/19 10:45:49;;;;;;;1.33;1.02;;;21.40;33.30;;;;;;5094717;28;20060;-85
2022/03/19 10:48:30;;;;;;;1.20;0.95;;;21.30;33.20;;;;;;5094459;28;20044;-85
2022/03/19 10:50:57;;;;;;;1.20;0.85;;;21.30;33.20;;;;;;5059506;28;20052;-85
2022/03/19 10:53:24;;;;;;;1.42;0.90;;;21.40;33.30;;;;;;5094833;28;20056;-85
2022/03/19 10:55:50;;;;;;;1.20;0.90;;;21.30;33.30;;;;;;5094488;28;20048;-85
2022/03/19 10:58:16;;;;;;;1.23;0.70;;;21.30;33.80;;;;;;5076287;28;20065;-85
2022/03/19 11:00:43;;;;;;;2.97;1.33;;;21.30;33.20;;;;;;5076044;28;20063;-85
2022/03/19 11:03:17;;;;;;;1.73;1.05;;;21.30;33.20;;;;;;5076401;28;20514;-85
2022/03/19 11:05:45;;;;;;;1.17;0.90;;;21.30;33.20;;;;;;5076296;28;20058;-85
2022/03/19 11:08:12;;;;;;;0.82;0.80;;;21.30;33.30;;;;;;5094065;28;20052;-85
2022/03/19 11:10:38;;;;;;;1.80;0.98;;;21.30;33.20;;;;;;5058426;28;20048;-85
2022/03/19 11:13:08;;;;;;;0.93;0.70;;;21.30;33.20;;;;;;5094275;28;20134;-85
2022/03/19 11:15:35;;;;;;;1.23;1.00;;;21.30;33.20;;;;;;5094255;28;20484;-85
2022/03/19 11:18:06;;;;;;;2.67;1.10;;;21.30;33.30;;;;;;5093774;28;20076;-85
2022/03/19 11:20:33;;;;;;;1.98;1.10;;;21.30;33.30;;;;;;5093959;28;20090;-85
2022/03/19 11:23:04;;;;;;;1.25;1.00;;;21.40;33.30;;;;;;5075751;28;20530;-84
2022/03/19 11:25:39;;;;;;;1.40;0.80;;;21.30;33.20;;;;;;5093945;28;20138;-85
2022/03/19 11:28:07;;;;;;;1.67;1.02;;;21.30;33.20;;;;;;5093943;28;20052;-85
2022/03/19 11:30:36;;;;;;;1.20;0.90;;;21.30;33.20;;;;;;5093921;28;20420;-85
2022/03/19 11:33:09;;;;;;;1.73;1.27;;;21.30;33.20;;;;;;5094220;28;20564;-85
2022/03/19 11:35:39;;;;;;;0.82;0.80;;;21.30;33.20;;;;;;5075853;28;20093;-85
2022/03/19 11:38:17;;;;;;;1.63;1.05;;;21.30;33.20;;;;;;5093971;28;20468;-85
2022/03/19 11:40:50;;;;;;;2.10;0.93;;;21.30;33.20;;;;;;5092657;28;20109;-85
2022/03/19 11:43:32;;;;;;;1.25;0.98;;;21.30;33.10;;;;;;5075754;28;20441;-84
2022/03/19 11:46:00;;;;;;;1.27;0.95;;;21.30;33.20;;;;;;5058703;28;20457;-85
2022/03/19 11:48:39;;;;;;;1.48;1.00;;;21.30;33.10;;;;;;5093220;28;20047;-85
2022/03/19 11:51:22;;;;;;;1.08;0.93;;;21.30;33.20;;;;;;5075799;28;20130;-85
2022/03/19 11:54:12;;;;;;;2.60;1.10;;;21.30;33.20;;;;;;5075716;28;20084;-85
2022/03/19 11:56:41;;;;;;;1.63;1.00;;;21.30;33.30;;;;;;5075202;28;20393;-85
2022/03/19 11:59:15;;;;;;;2.17;1.25;;;21.20;33.20;;;;;;5073435;28;20607;-85
2022/03/19 12:02:05;;;;;;;1.05;0.70;;;21.30;33.30;;;;;;5075936;28;20120;-85
2022/03/19 12:04:48;;;;;;;0.82;0.82;;;21.20;33.20;;;;;;5093451;28;20085;-86
2022/03/19 12:07:39;;;;;;;2.30;0.95;;;21.30;33.10;;;;;;5091754;28;20059;-85
2022/03/19 12:10:16;;;;;;;1.08;0.90;;;21.20;33.20;;;;;;5093169;28;20063;-85
2022/03/19 12:12:43;;;;;;;1.52;0.90;;;21.20;33.20;;;;;;5093954;28;20072;-85
2022/03/19 12:15:33;;;;;;;1.35;1.10;;;21.20;33.20;;;;;;5092982;28;20048;-85
2022/03/19 12:18:22;;;;;;;2.10;0.82;;;21.20;33.20;;;;;;5073506;28;20151;-85
2022/03/19 12:20:50;;;;;;;2.07;1.07;;;21.20;33.20;;;;;;5093195;28;20393;-85
2022/03/19 12:23:16;;;;;;;1.80;0.90;;;21.20;33.20;;;;;;5092977;28;20043;-86
2022/03/19 12:25:52;;;;;;;2.63;1.00;;;21.20;33.20;;;;;;5093088;28;20061;-86
2022/03/19 12:28:18;;;;;;;1.60;0.90;;;21.20;33.20;;;;;;5091681;28;20043;-85
2022/03/19 12:30:44;;;;;;;1.23;0.95;;;21.20;33.20;;;;;;5093255;28;20131;-86
2022/03/19 12:33:10;;;;;;;1.50;0.95;;;21.10;33.10;;;;;;5092915;28;20122;-85
2022/03/19 12:35:41;;;;;;;1.65;0.80;;;21.00;33.10;;;;;;5058553;28;20059;-86
2022/03/19 12:38:07;;;;;;;1.42;0.80;;;21.00;33.30;;;;;;5074108;28;20059;-85
2022/03/19 12:43:20;;;;;;;1.65;0.93;;;21.00;33.40;;;;;;5092897;28;20055;-86
2022/03/19 12:45:49;;;;;;;1.38;1.00;;;21.00;33.40;;;;;;5092879;28;20559;-86
2022/03/19 12:48:16;;;;;;;2.30;1.25;;;21.00;33.30;;;;;;5092531;28;20495;-85
2022/03/19 12:50:56;;;;;;;1.48;0.93;;;21.00;33.30;;;;;;5092981;28;20079;-85
2022/03/19 12:53:35;;;;;;;2.60;1.15;;;20.90;33.40;;;;;;5093004;28;20407;-85
2022/03/19 12:56:14;;;;;;;1.80;0.70;;;20.90;33.30;;;;;;5092372;28;20488;-85
2022/03/19 12:58:43;;;;;;;0.90;0.80;;;21.00;33.40;;;;;;5074401;28;20075;-85
2022/03/19 13:01:13;;;;;;;1.00;0.80;;;20.90;33.40;;;;;;5092545;28;20074;-86
2022/03/19 13:03:39;;;;;;;1.33;0.90;;;20.90;33.40;;;;;;5092479;28;20044;-85
2022/03/19 13:06:05;;;;;;;1.75;1.00;;;20.90;33.40;;;;;;5073128;28;20078;-85
2022/03/19 13:08:51;;;;;;;1.65;0.80;;;20.90;33.40;;;;;;5092429;28;20054;-85
2022/03/19 13:11:17;;;;;;;1.27;0.90;;;20.90;33.40;;;;;;5092540;28;20048;-85